createdAt,value
2018-06-20T00:02:27.792Z,6.47
2018-06-20T00:04:56.819Z,6.00
2018-06-20T00:07:25.918Z,5.83
2018-06-20T00:09:54.569Z,6.17
2018-06-20T00:12:23.547Z,6.53
2018-06-20T00:14:52.274Z,5.83
2018-06-20T00:17:20.902Z,5.43
2018-06-20T00:19:49.900Z,5.87
2018-06-20T00:22:18.955Z,6.80
2018-06-20T00:24:47.987Z,7.40
2018-06-20T00:27:16.977Z,7.10
2018-06-20T00:29:46.031Z,6.13
2018-06-20T00:32:15.074Z,7.50
2018-06-20T00:34:44.119Z,6.10
2018-06-20T00:37:13.201Z,7.47
2018-06-20T00:39:42.227Z,7.17
2018-06-20T00:42:10.949Z,7.17
2018-06-20T00:44:39.903Z,6.70
2018-06-20T00:47:08.599Z,7.03
2018-06-20T00:49:37.243Z,8.10
2018-06-20T00:52:06.236Z,7.90
2018-06-20T00:54:35.536Z,7.67
2018-06-20T00:57:04.623Z,7.77
2018-06-20T00:59:33.338Z,8.27
2018-06-20T01:02:02.075Z,7.30
2018-06-20T01:04:31.031Z,8.40
2018-06-20T01:07:00.270Z,7.43
2018-06-20T01:09:28.959Z,7.70
2018-06-20T01:11:57.673Z,7.23
2018-06-20T01:14:26.519Z,8.90
2018-06-20T01:16:55.569Z,7.90
2018-06-20T01:19:24.286Z,7.53
2018-06-20T01:21:52.902Z,8.07
2018-06-20T01:24:21.538Z,8.97
2018-06-20T01:26:50.503Z,8.23
2018-06-20T01:29:19.198Z,7.20
2018-06-20T01:31:47.831Z,8.03
2018-06-20T01:34:16.770Z,9.50
2018-06-20T01:36:45.807Z,9.00
2018-06-20T01:39:14.864Z,8.77
2018-06-20T01:41:44.147Z,12.90
2018-06-20T01:44:12.862Z,10.37
2018-06-20T01:46:41.567Z,10.23
2018-06-20T01:49:10.202Z,7.90
2018-06-20T01:51:39.159Z,9.37
2018-06-20T01:54:08.215Z,8.27
2018-06-20T01:56:36.959Z,8.60
2018-06-20T01:59:06.074Z,7.77
2018-06-20T02:01:34.787Z,7.70
2018-06-20T02:04:03.771Z,7.20
2018-06-20T02:06:32.486Z,9.03
2018-06-20T02:09:01.178Z,10.47
2018-06-20T02:11:31.099Z,9.67
2018-06-20T02:14:00.264Z,8.57
2018-06-20T02:16:29.304Z,8.80
2018-06-20T02:18:58.355Z,8.97
2018-06-20T02:21:27.410Z,8.03
2018-06-20T02:23:56.451Z,8.13
2018-06-20T02:26:25.166Z,9.23
2018-06-20T02:28:53.799Z,8.20
2018-06-20T02:31:22.401Z,8.47
2018-06-20T02:33:51.356Z,9.83
2018-06-20T02:36:25.361Z,8.90
2018-06-20T02:38:54.034Z,8.60
2018-06-20T02:41:22.652Z,8.53
2018-06-20T02:43:51.590Z,7.53
2018-06-20T02:46:20.322Z,8.03
2018-06-20T02:48:49.292Z,7.60
2018-06-20T02:51:18.332Z,6.83
2018-06-20T02:53:47.397Z,6.43
2018-06-20T02:56:16.475Z,5.43
2018-06-20T02:58:45.496Z,6.03
2018-06-20T03:01:14.531Z,6.20
2018-06-20T03:03:43.574Z,6.47
2018-06-20T03:06:12.656Z,6.83
2018-06-20T03:08:41.719Z,6.57
2018-06-20T03:11:10.426Z,5.47
2018-06-20T03:13:39.069Z,6.27
2018-06-20T03:16:08.026Z,5.90
2018-06-20T03:18:36.750Z,6.77
2018-06-20T03:21:05.808Z,6.20
2018-06-20T03:23:34.860Z,6.10
2018-06-20T03:26:03.590Z,5.47
2018-06-20T03:28:32.540Z,5.73
2018-06-20T03:31:01.240Z,5.83
2018-06-20T03:33:29.897Z,6.07
2018-06-20T03:35:58.542Z,5.80
2018-06-20T03:38:27.495Z,5.93
2018-06-20T03:40:56.568Z,5.30
2018-06-20T03:43:25.609Z,5.40
2018-06-20T03:45:54.644Z,5.80
2018-06-20T03:48:23.348Z,5.23
2018-06-20T03:50:52.093Z,6.00
2018-06-20T03:53:21.067Z,6.13
2018-06-20T03:55:50.136Z,5.53
2018-06-20T03:58:19.224Z,5.17
2018-06-20T04:00:47.930Z,4.97
2018-06-20T04:03:16.892Z,5.37
2018-06-20T04:05:45.919Z,5.57
2018-06-20T04:08:14.963Z,4.70
2018-06-20T04:10:43.681Z,4.70
2018-06-20T04:13:12.608Z,4.03
2018-06-20T04:15:41.630Z,4.13
2018-06-20T04:18:10.336Z,4.60
2018-06-20T04:20:39.312Z,4.83
2018-06-20T04:23:08.384Z,4.33
2018-06-20T04:25:37.415Z,5.27
2018-06-20T04:28:06.505Z,5.67
2018-06-20T04:30:35.468Z,5.70
2018-06-20T04:33:04.515Z,5.33
2018-06-20T04:35:33.580Z,5.87
2018-06-20T04:38:02.617Z,4.97
2018-06-20T04:40:31.651Z,5.60
2018-06-20T04:43:00.346Z,5.00
2018-06-20T04:45:28.959Z,5.13
2018-06-20T04:47:57.593Z,5.27
2018-06-20T04:50:26.527Z,4.90
2018-06-20T04:52:55.577Z,5.37
2018-06-20T04:55:24.649Z,4.60
2018-06-20T04:57:53.687Z,4.30
2018-06-20T05:00:22.404Z,4.57
2018-06-20T05:02:51.052Z,3.30
2018-06-20T05:05:19.990Z,3.30
2018-06-20T05:07:48.701Z,3.07
2018-06-20T05:10:17.359Z,3.53
2018-06-20T05:12:46.304Z,3.60
2018-06-20T05:15:15.044Z,2.73
2018-06-20T05:17:44.001Z,3.20
2018-06-20T05:20:13.259Z,2.20
2018-06-20T05:22:42.370Z,1.97
2018-06-20T05:25:10.998Z,2.10
2018-06-20T05:27:39.943Z,1.87
2018-06-20T05:30:08.988Z,2.17
2018-06-20T05:32:38.051Z,1.90
2018-06-20T05:35:07.121Z,1.83
2018-06-20T05:37:35.827Z,1.40
2018-06-20T05:40:05.632Z,1.57
2018-06-20T05:42:34.730Z,1.70
2018-06-20T05:45:03.859Z,1.53
2018-06-20T05:47:32.595Z,1.60
2018-06-20T05:50:01.228Z,1.50
2018-06-20T05:52:29.895Z,1.90
2018-06-20T05:54:59.208Z,1.67
2018-06-20T05:57:28.118Z,1.40
2018-06-20T05:59:57.092Z,1.63
2018-06-20T06:02:25.835Z,1.40
2018-06-20T06:04:54.825Z,1.60
2018-06-20T06:07:23.864Z,1.70
2018-06-20T06:09:52.919Z,1.67
2018-06-20T06:12:21.956Z,1.07
2018-06-20T06:14:50.658Z,1.10
2018-06-20T06:17:19.659Z,1.17
2018-06-20T06:19:48.412Z,0.80
2018-06-20T06:22:17.585Z,1.10
2018-06-20T06:24:46.290Z,1.00
2018-06-20T06:27:14.915Z,0.90
2018-06-20T06:29:43.844Z,1.00
2018-06-20T06:32:12.663Z,1.00
2018-06-20T06:34:41.304Z,0.90
2018-06-20T06:37:10.273Z,0.70
2018-06-20T06:39:39.063Z,0.90
2018-06-20T06:42:07.874Z,1.17
2018-06-20T06:44:36.535Z,1.33
2018-06-20T06:47:05.192Z,1.30
2018-06-20T06:49:34.183Z,1.50
2018-06-20T06:52:03.218Z,1.53
2018-06-20T06:54:32.399Z,1.20
2018-06-20T06:57:01.617Z,1.20
2018-06-20T06:59:30.668Z,1.20
2018-06-20T07:01:59.379Z,0.60
2018-06-20T07:04:27.981Z,0.70
2018-06-20T07:06:57.064Z,0.60
2018-06-20T07:09:26.640Z,0.70
2018-06-20T07:11:55.249Z,0.80
2018-06-20T07:14:23.886Z,1.10
2018-06-20T07:16:52.867Z,0.90
2018-06-20T07:19:21.493Z,0.60
2018-06-20T07:21:50.111Z,0.63
2018-06-20T07:24:19.124Z,0.57
2018-06-20T07:26:48.322Z,0.40
2018-06-20T07:29:17.360Z,0.40
2018-06-20T07:31:46.117Z,0.60
2018-06-20T07:34:14.817Z,0.80
2018-06-20T07:36:43.702Z,0.93
2018-06-20T07:39:12.730Z,0.90
2018-06-20T07:41:41.339Z,1.50
2018-06-20T07:44:09.976Z,0.83
2018-06-20T07:46:38.892Z,0.70
2018-06-20T07:49:07.497Z,0.70
2018-06-20T07:51:36.326Z,0.60
2018-06-20T07:54:05.016Z,4.73
2018-06-20T07:56:33.692Z,0.83
2018-06-20T07:59:02.379Z,0.70
2018-06-20T08:01:41.835Z,0.80
2018-06-20T08:04:16.147Z,1.00
2018-06-20T08:06:50.187Z,0.70
2018-06-20T08:09:24.086Z,1.10
2018-06-20T08:11:57.934Z,0.90
2018-06-20T08:14:32.280Z,0.97
2018-06-20T08:17:06.396Z,0.90
2018-06-20T08:19:40.575Z,1.20
2018-06-20T08:22:09.187Z,1.27
2018-06-20T08:24:42.222Z,1.30
2018-06-20T08:27:11.160Z,1.90
2018-06-20T08:29:40.197Z,1.50
2018-06-20T08:32:08.919Z,1.60
2018-06-20T08:34:37.888Z,1.80
2018-06-20T08:37:07.132Z,1.60
2018-06-20T08:39:35.836Z,1.63
2018-06-20T08:42:05.163Z,1.27
2018-06-20T08:44:33.883Z,1.07
2018-06-20T08:47:02.856Z,1.30
2018-06-20T08:49:31.567Z,1.60
2018-06-20T08:52:00.496Z,1.27
2018-06-20T08:54:29.398Z,1.50
2018-06-20T08:56:58.215Z,1.60
2018-06-20T08:59:27.164Z,1.30
2018-06-20T09:01:56.196Z,0.97
2018-06-20T09:06:36.996Z,1.27
2018-06-20T09:09:12.015Z,0.90
2018-06-20T09:11:46.279Z,1.17
2018-06-20T09:14:15.167Z,1.20
2018-06-20T09:16:49.515Z,1.30
2018-06-20T09:19:23.604Z,1.30
2018-06-20T09:21:52.569Z,1.07
2018-06-20T09:24:21.282Z,1.23
2018-06-20T09:26:49.950Z,0.90
2018-06-20T09:29:18.911Z,1.23
2018-06-20T09:31:47.691Z,1.30
2018-06-20T09:34:16.330Z,1.03
2018-06-20T09:36:44.946Z,1.37
2018-06-20T09:39:13.888Z,1.03
2018-06-20T09:41:42.594Z,1.00
2018-06-20T09:44:11.226Z,1.00
2018-06-20T09:46:40.195Z,1.40
2018-06-20T09:49:09.021Z,1.00
2018-06-20T09:51:38.387Z,1.40
2018-06-20T09:54:07.091Z,1.30
2018-06-20T09:56:35.713Z,1.20
2018-06-20T09:59:09.592Z,1.10
2018-06-20T10:01:43.487Z,1.03
2018-06-20T10:04:17.669Z,1.40
2018-06-20T10:06:51.867Z,1.00
2018-06-20T10:09:25.909Z,1.07
2018-06-20T10:11:59.918Z,1.50
2018-06-20T10:14:28.880Z,0.90
2018-06-20T10:16:57.600Z,1.07
2018-06-20T10:19:26.568Z,1.30
2018-06-20T10:21:55.863Z,1.20
2018-06-20T10:24:24.802Z,1.17
2018-06-20T10:26:53.985Z,1.10
2018-06-20T10:29:23.132Z,0.90
2018-06-20T10:31:52.153Z,0.70
2018-06-20T10:34:20.893Z,0.80
2018-06-20T10:36:49.831Z,1.43
2018-06-20T10:39:18.531Z,0.87
2018-06-20T10:41:47.175Z,0.90
2018-06-20T10:44:16.795Z,0.50
2018-06-20T10:46:51.127Z,0.80
2018-06-20T10:49:20.234Z,0.67
2018-06-20T10:51:48.881Z,0.80
2018-06-20T10:54:17.495Z,1.17
2018-06-20T10:56:51.919Z,0.97
2018-06-20T10:59:26.231Z,0.70
2018-06-20T11:02:00.509Z,0.90
2018-06-20T11:04:35.461Z,0.93
2018-06-20T11:07:09.763Z,1.20
2018-06-20T11:09:43.864Z,1.10
2018-06-20T11:12:17.984Z,1.07
2018-06-20T11:14:46.919Z,0.90
2018-06-20T11:17:15.619Z,1.20
2018-06-20T11:19:44.235Z,1.20
2018-06-20T11:22:12.887Z,1.10
2018-06-20T11:24:41.831Z,1.37
2018-06-20T11:27:10.531Z,1.63
2018-06-20T11:29:39.146Z,1.50
2018-06-20T11:32:07.804Z,1.53
2018-06-20T11:34:36.746Z,1.43
2018-06-20T11:37:05.474Z,1.50
2018-06-20T11:39:35.062Z,1.70
2018-06-20T11:42:03.744Z,1.33
2018-06-20T11:44:32.691Z,1.73
2018-06-20T11:47:07.035Z,1.77
2018-06-20T11:49:36.069Z,1.50
2018-06-20T11:52:09.070Z,1.70
2018-06-20T11:54:37.708Z,1.40
2018-06-20T11:57:06.355Z,1.67
2018-06-20T11:59:40.596Z,1.83
2018-06-20T12:02:14.787Z,1.80
2018-06-20T12:04:48.958Z,1.93
2018-06-20T12:07:23.239Z,1.60
2018-06-20T12:09:57.527Z,1.70
2018-06-20T12:12:31.860Z,1.50
2018-06-20T12:28:01.105Z,1.20
2018-06-20T12:30:35.184Z,1.10
2018-06-20T12:33:09.129Z,2.10
2018-06-20T12:35:43.487Z,1.20
2018-06-20T12:38:17.565Z,1.27
2018-06-20T12:40:51.833Z,1.00
2018-06-20T12:43:25.947Z,0.90
2018-06-20T12:46:00.588Z,1.27
2018-06-20T12:48:29.357Z,1.20
2018-06-20T12:50:58.330Z,0.90
2018-06-20T12:53:27.391Z,1.23
2018-06-20T12:55:56.096Z,1.00
2018-06-20T12:58:25.050Z,1.20
2018-06-20T13:00:54.100Z,1.10
2018-06-20T13:03:23.127Z,1.30
2018-06-20T13:05:52.184Z,1.70
2018-06-20T13:08:20.817Z,1.90
2018-06-20T13:10:49.438Z,1.60
2018-06-20T13:13:18.407Z,2.43
2018-06-20T13:15:47.273Z,2.07
2018-06-20T13:18:16.201Z,2.03
2018-06-20T13:20:44.935Z,1.97
2018-06-20T13:23:13.570Z,1.87
2018-06-20T13:25:42.186Z,2.13
2018-06-20T13:28:11.136Z,1.60
2018-06-20T13:30:39.868Z,1.63
2018-06-20T13:33:13.899Z,2.20
2018-06-20T13:35:48.034Z,1.90
2018-06-20T13:38:22.151Z,1.70
2018-06-20T13:40:56.596Z,1.73
2018-06-20T13:43:30.959Z,1.77
2018-06-20T13:46:04.931Z,1.80
2018-06-20T13:48:35.248Z,1.73
2018-06-20T13:51:03.980Z,2.07
2018-06-20T13:53:32.924Z,2.50
2018-06-20T13:56:01.628Z,1.70
2018-06-20T13:58:30.284Z,2.00
2018-06-20T14:00:59.147Z,1.47
2018-06-20T14:03:27.766Z,2.00
2018-06-20T14:05:56.391Z,2.00
2018-06-20T14:08:25.322Z,2.27
2018-06-20T14:10:54.351Z,2.60
2018-06-20T14:13:23.064Z,2.60
2018-06-20T14:15:51.686Z,2.40
2018-06-20T14:18:20.315Z,3.57
2018-06-20T14:20:54.408Z,4.70
2018-06-20T14:23:23.136Z,7.00
2018-06-20T14:25:51.746Z,2.83
2018-06-20T14:28:20.394Z,3.20
2018-06-20T14:31:55.932Z,5.60
2018-06-20T14:34:30.464Z,3.63
2018-06-20T14:37:04.424Z,3.90
2018-06-20T14:39:38.310Z,4.10
2018-06-20T14:42:12.355Z,3.33
2018-06-20T14:44:41.124Z,3.17
2018-06-20T14:47:09.760Z,1.90
2018-06-20T14:49:38.488Z,2.03
2018-06-20T14:52:07.127Z,2.30
2018-06-20T14:54:35.735Z,3.33
2018-06-20T14:57:04.724Z,3.07
2018-06-20T14:59:33.495Z,4.07
2018-06-20T15:02:02.124Z,3.40
2018-06-20T15:04:30.726Z,2.93
2018-06-20T15:06:59.446Z,3.60
2018-06-20T15:09:27.994Z,4.33
2018-06-20T15:11:56.622Z,4.57
2018-06-20T15:14:25.635Z,5.67
2018-06-20T15:16:59.540Z,4.70
2018-06-20T15:19:28.198Z,4.50
2018-06-20T15:21:57.115Z,4.73
2018-06-20T15:24:26.164Z,4.23
2018-06-20T15:27:00.628Z,4.37
2018-06-20T15:29:34.694Z,4.03
2018-06-20T15:32:08.827Z,3.90
2018-06-20T15:34:42.775Z,3.73
2018-06-20T15:37:16.939Z,4.47
2018-06-20T15:39:45.984Z,4.23
2018-06-20T15:42:15.035Z,3.50
2018-06-20T15:44:43.766Z,6.23
2018-06-20T15:47:12.723Z,2.17
2018-06-20T15:49:41.445Z,2.23
2018-06-20T15:52:10.399Z,2.10
2018-06-20T15:54:39.202Z,2.80
2018-06-20T15:57:14.478Z,3.17
2018-06-20T15:59:43.414Z,3.37
2018-06-20T16:02:12.443Z,4.10
2018-06-20T16:04:41.179Z,3.37
2018-06-20T16:07:09.817Z,4.23
2018-06-20T16:09:43.818Z,4.20
2018-06-20T16:12:12.467Z,3.30
2018-06-20T16:14:41.383Z,3.83
2018-06-20T16:17:10.451Z,4.23
2018-06-20T16:19:44.539Z,4.37
2018-06-20T16:24:23.036Z,3.93
2018-06-20T16:26:57.059Z,3.60
2018-06-20T16:29:31.012Z,3.63
2018-06-20T16:31:59.642Z,3.20
2018-06-20T16:34:28.284Z,3.47
2018-06-20T16:36:57.231Z,1.90
2018-06-20T16:39:26.153Z,2.97
2018-06-20T16:41:55.139Z,2.30
2018-06-20T16:44:24.187Z,2.83
2018-06-20T16:46:52.890Z,2.33
2018-06-20T16:49:21.497Z,2.40
2018-06-20T16:51:50.491Z,2.23
2018-06-20T16:54:19.231Z,2.23
2018-06-20T16:56:48.163Z,2.60
2018-06-20T16:59:16.878Z,2.67
2018-06-20T17:01:51.135Z,2.57
2018-06-20T17:04:19.882Z,2.57
2018-06-20T17:06:48.520Z,2.77
2018-06-20T17:09:19.460Z,3.40
2018-06-20T17:11:55.694Z,3.20
2018-06-20T17:14:29.995Z,3.23
2018-06-20T17:17:04.144Z,3.30
2018-06-20T17:19:38.427Z,3.50
2018-06-20T17:22:12.387Z,2.83
2018-06-20T17:24:46.827Z,2.80
2018-06-20T17:27:15.536Z,3.60
2018-06-20T17:29:44.194Z,3.27
2018-06-20T17:32:13.344Z,3.80
2018-06-20T17:34:42.295Z,4.20
2018-06-20T17:37:11.340Z,4.60
2018-06-20T17:39:40.040Z,4.80
2018-06-20T17:42:09.088Z,4.33
2018-06-20T17:44:38.167Z,5.07
2018-06-20T17:47:06.903Z,5.40
2018-06-20T17:49:35.739Z,4.80
2018-06-20T17:52:05.028Z,4.47
2018-06-20T17:54:34.089Z,5.20
2018-06-20T17:57:02.787Z,5.40
2018-06-20T17:59:31.435Z,5.60
2018-06-20T18:02:00.087Z,5.90
2018-06-20T18:04:33.982Z,6.60
2018-06-20T18:07:07.875Z,6.27
2018-06-20T18:09:42.107Z,5.77
2018-06-20T18:12:16.132Z,5.53
2018-06-20T18:14:50.187Z,5.17
2018-06-20T18:17:19.123Z,5.47
2018-06-20T18:19:47.840Z,5.83
2018-06-20T18:22:16.639Z,6.20
2018-06-20T18:24:45.605Z,6.37
2018-06-20T18:27:14.678Z,6.30
2018-06-20T18:29:43.409Z,6.33
2018-06-20T18:32:12.359Z,6.73
2018-06-20T18:34:41.175Z,6.97
2018-06-20T18:37:10.137Z,6.03
2018-06-20T18:39:44.277Z,5.60
2018-06-20T18:42:13.199Z,4.10
2018-06-20T18:44:42.274Z,4.77
2018-06-20T18:47:15.306Z,4.97
2018-06-20T18:49:43.965Z,4.57
2018-06-20T18:52:12.940Z,5.50
2018-06-20T18:54:41.595Z,5.63
2018-06-20T18:57:14.595Z,6.43
2018-06-20T18:59:48.456Z,6.00
2018-06-20T19:02:22.338Z,6.07
2018-06-20T19:04:56.648Z,6.03
2018-06-20T19:07:30.711Z,6.27
2018-06-20T19:09:59.679Z,6.50
2018-06-20T19:12:28.543Z,6.30
2018-06-20T19:14:57.410Z,6.40
2018-06-20T19:17:26.149Z,5.70
2018-06-20T19:19:54.845Z,6.63
2018-06-20T19:22:23.723Z,7.33
2018-06-20T19:24:52.362Z,8.07
2018-06-20T19:27:20.992Z,7.60
2018-06-20T19:29:49.614Z,7.67
2018-06-20T19:32:18.297Z,7.07
2018-06-20T19:34:47.583Z,7.87
2018-06-20T19:37:16.635Z,8.53
2018-06-20T19:39:51.398Z,8.33
2018-06-20T19:42:22.316Z,7.43
2018-06-20T19:44:51.461Z,8.27
2018-06-20T19:47:20.060Z,7.37
2018-06-20T19:49:49.040Z,8.60
2018-06-20T19:52:18.111Z,7.53
2018-06-20T19:54:47.520Z,7.37
2018-06-20T19:57:16.242Z,6.90
2018-06-20T19:59:45.210Z,7.87
2018-06-20T20:02:14.218Z,8.47
2018-06-20T20:04:42.957Z,8.20
2018-06-20T20:07:11.571Z,9.13
2018-06-20T20:09:40.528Z,8.23
2018-06-20T20:12:09.268Z,9.53
2018-06-20T20:14:38.264Z,9.23
2018-06-20T20:17:06.992Z,8.70
2018-06-20T20:19:35.958Z,8.83
2018-06-20T20:22:04.683Z,10.47
2018-06-20T20:24:33.311Z,10.50
2018-06-20T20:27:02.281Z,11.17
2018-06-20T20:29:31.387Z,10.37
2018-06-20T20:32:00.109Z,10.43
2018-06-20T20:34:28.768Z,12.53
2018-06-20T20:36:57.380Z,11.30
2018-06-20T20:39:26.540Z,11.87
2018-06-20T20:41:55.301Z,11.57
2018-06-20T20:44:24.260Z,10.83
2018-06-20T20:46:53.003Z,10.17
2018-06-20T20:49:21.693Z,8.93
2018-06-20T20:51:50.647Z,8.30
2018-06-20T20:54:19.359Z,9.30
2018-06-20T20:56:48.291Z,9.97
2018-06-20T20:59:17.339Z,8.47
2018-06-20T21:01:46.063Z,11.23
2018-06-20T21:04:14.723Z,8.70
2018-06-20T21:06:43.399Z,9.83
2018-06-20T21:09:12.359Z,9.00
2018-06-20T21:11:41.389Z,8.80
2018-06-20T21:14:10.495Z,9.23
2018-06-20T21:16:39.237Z,8.73
2018-06-20T21:19:08.203Z,8.40
2018-06-20T21:21:36.976Z,8.77
2018-06-20T21:24:05.995Z,7.30
2018-06-20T21:26:34.682Z,7.73
2018-06-20T21:29:03.346Z,10.47
2018-06-20T21:31:32.013Z,8.37
2018-06-20T21:34:00.991Z,9.53
2018-06-20T21:36:30.042Z,9.77
2018-06-20T21:38:59.407Z,9.40
2018-06-20T21:41:28.463Z,9.57
2018-06-20T21:43:57.524Z,10.27
2018-06-20T21:46:26.575Z,9.30
2018-06-20T21:48:55.294Z,9.43
2018-06-20T21:51:23.963Z,8.83
2018-06-20T21:53:52.900Z,8.90
2018-06-20T21:56:22.262Z,7.30
2018-06-20T21:58:51.296Z,8.97
2018-06-20T22:01:20.016Z,8.60
2018-06-20T22:03:48.959Z,9.30
2018-06-20T22:06:18.339Z,8.90
2018-06-20T22:08:47.398Z,9.90
2018-06-20T22:11:16.223Z,10.23
2018-06-20T22:13:45.188Z,10.30
2018-06-20T22:16:13.907Z,10.87
2018-06-20T22:18:42.906Z,11.80
2018-06-20T22:21:11.963Z,11.37
2018-06-20T22:23:41.011Z,11.10
2018-06-20T22:26:10.049Z,12.23
2018-06-20T22:28:39.083Z,11.33
2018-06-20T22:31:07.811Z,13.60
2018-06-20T22:33:36.459Z,12.80
2018-06-20T22:36:05.435Z,13.50
2018-06-20T22:38:34.183Z,13.73
2018-06-20T22:41:03.527Z,14.87
2018-06-20T22:43:32.263Z,14.57
2018-06-20T22:46:01.288Z,15.73
2018-06-20T22:48:30.364Z,15.93
2018-06-20T22:50:59.416Z,14.90
2018-06-20T22:53:28.222Z,13.50
2018-06-20T22:55:57.092Z,15.17
2018-06-20T22:58:26.263Z,13.90
2018-06-20T23:00:55.352Z,14.57
2018-06-20T23:03:24.194Z,12.67
2018-06-20T23:05:53.176Z,14.23
2018-06-20T23:08:22.287Z,16.40
2018-06-20T23:10:51.351Z,15.97
2018-06-20T23:13:20.409Z,17.57
2018-06-20T23:15:49.560Z,17.90
2018-06-20T23:18:18.620Z,16.97
2018-06-20T23:20:47.682Z,17.73
2018-06-20T23:23:16.751Z,15.97
2018-06-20T23:25:46.455Z,16.80
2018-06-20T23:28:15.532Z,15.87
2018-06-20T23:30:44.595Z,15.73
2018-06-20T23:33:13.475Z,15.67
2018-06-20T23:35:42.441Z,15.27
2018-06-20T23:38:11.725Z,15.67
2018-06-20T23:40:40.772Z,15.10
2018-06-20T23:43:15.918Z,16.33
2018-06-20T23:45:44.944Z,17.70
2018-06-20T23:48:13.995Z,18.50
2018-06-20T23:50:43.044Z,17.97
2018-06-20T23:53:11.782Z,17.73
2018-06-20T23:55:40.760Z,16.10
2018-06-20T23:58:10.148Z,15.77
